VTPH/HHQ METAR and TAF weather

Enter ICAO airport designator
Station Type Date Time Source
VTPH METAR 2021/09/28 05:00 UTC NOAA

VTPH 280500Z VRB03KT 9999 FEW030 30/25 Q1009 NOSIG


Station Type Date Time Source
VTPH Decoded METAR 2021/09/28 05:00 UTC NOAA

Hua Hin, Thailand (VTPH) 12-35N 099-57E 6M
Sep 28, 2021 - 01:00 AM EDT / 2021.09.28 0500 UTC
Wind: Variable at 3 MPH (3 KT):0
Visibility: greater than 7 mile(s):0
Sky conditions: mostly clear
Temperature: 86 F (30 C)
Heat index: 96.8 F (36.0 C):1
Dew Point: 77 F (25 C)
Relative Humidity: 74%
Pressure (altimeter): 29.80 in. Hg (1009 hPa)
ob: VTPH 280500Z VRB03KT 9999 FEW030 30/25 Q1009 NOSIG
cycle: 5

Station Type Date Time Source
VTPH TAF 2021/09/27 18:00 UTC NOAA

TAF VTPH 271700Z 2718/2818 14005KT 9999 FEW020
TEMPO 2805/2812 4000 RA

Example: see airport list